sensor_id;sensor_type;location;lat;lon;timestamp;P1;durP1;ratioP1;P2;durP2;ratioP2
53890;SDS011;41337;51.400;-2.342;2022-07-06T00:00:17;1.92;;;1.60;;
53890;SDS011;41337;51.400;-2.342;2022-07-06T00:05:18;1.73;;;1.63;;
53890;SDS011;41337;51.400;-2.342;2022-07-06T00:10:19;1.67;;;1.55;;
53890;SDS011;41337;51.400;-2.342;2022-07-06T00:15:20;3.22;;;1.38;;
53890;SDS011;41337;51.400;-2.342;2022-07-06T00:20:20;2.03;;;1.80;;
53890;SDS011;41337;51.400;-2.342;2022-07-06T00:25:21;1.40;;;1.30;;
53890;SDS011;41337;51.400;-2.342;2022-07-06T00:30:22;3.92;;;2.03;;
53890;SDS011;41337;51.400;-2.342;2022-07-06T00:35:32;1.65;;;1.55;;
53890;SDS011;41337;51.400;-2.342;2022-07-06T00:40:33;1.38;;;1.10;;
53890;SDS011;41337;51.400;-2.342;2022-07-06T00:45:34;2.35;;;1.95;;
53890;SDS011;41337;51.400;-2.342;2022-07-06T00:50:35;2.35;;;1.70;;
53890;SDS011;41337;51.400;-2.342;2022-07-06T00:55:37;2.15;;;1.70;;
53890;SDS011;41337;51.400;-2.342;2022-07-06T01:00:44;1.77;;;1.48;;
53890;SDS011;41337;51.400;-2.342;2022-07-06T01:05:45;3.58;;;1.83;;
53890;SDS011;41337;51.400;-2.342;2022-07-06T01:10:46;1.77;;;1.63;;
53890;SDS011;41337;51.400;-2.342;2022-07-06T01:15:47;2.83;;;1.38;;
53890;SDS011;41337;51.400;-2.342;2022-07-06T01:20:47;2.35;;;1.70;;
53890;SDS011;41337;51.400;-2.342;2022-07-06T01:25:48;1.95;;;1.45;;
53890;SDS011;41337;51.400;-2.342;2022-07-06T01:30:49;2.28;;;1.60;;
53890;SDS011;41337;51.400;-2.342;2022-07-06T01:35:50;1.60;;;1.30;;
53890;SDS011;41337;51.400;-2.342;2022-07-06T01:40:50;1.42;;;1.33;;
53890;SDS011;41337;51.400;-2.342;2022-07-06T01:45:51;1.83;;;1.73;;
53890;SDS011;41337;51.400;-2.342;2022-07-06T01:50:52;1.50;;;1.40;;
53890;SDS011;41337;51.400;-2.342;2022-07-06T01:55:53;2.20;;;1.67;;
53890;SDS011;41337;51.400;-2.342;2022-07-06T02:00:54;1.90;;;1.77;;
53890;SDS011;41337;51.400;-2.342;2022-07-06T02:05:54;2.53;;;1.55;;
53890;SDS011;41337;51.400;-2.342;2022-07-06T02:10:55;1.33;;;1.23;;
53890;SDS011;41337;51.400;-2.342;2022-07-06T02:15:56;2.25;;;1.70;;
53890;SDS011;41337;51.400;-2.342;2022-07-06T02:20:57;3.38;;;1.75;;
53890;SDS011;41337;51.400;-2.342;2022-07-06T02:25:58;1.55;;;1.45;;
53890;SDS011;41337;51.400;-2.342;2022-07-06T02:30:58;1.50;;;1.40;;
53890;SDS011;41337;51.400;-2.342;2022-07-06T02:35:59;1.38;;;1.20;;
53890;SDS011;41337;51.400;-2.342;2022-07-06T02:41:00;1.77;;;1.65;;
53890;SDS011;41337;51.400;-2.342;2022-07-06T02:46:01;1.90;;;1.60;;
53890;SDS011;41337;51.400;-2.342;2022-07-06T02:51:02;1.30;;;1.20;;
53890;SDS011;41337;51.400;-2.342;2022-07-06T02:56:03;2.78;;;1.40;;
53890;SDS011;41337;51.400;-2.342;2022-07-06T03:01:04;1.40;;;1.30;;
53890;SDS011;41337;51.400;-2.342;2022-07-06T03:06:05;1.55;;;1.45;;
53890;SDS011;41337;51.400;-2.342;2022-07-06T03:11:11;2.28;;;1.73;;
53890;SDS011;41337;51.400;-2.342;2022-07-06T03:16:12;3.00;;;1.83;;
53890;SDS011;41337;51.400;-2.342;2022-07-06T03:21:13;1.70;;;1.60;;
53890;SDS011;41337;51.400;-2.342;2022-07-06T03:26:13;1.63;;;1.52;;
53890;SDS011;41337;51.400;-2.342;2022-07-06T03:31:14;3.35;;;1.80;;
53890;SDS011;41337;51.400;-2.342;2022-07-06T03:36:15;1.70;;;1.60;;
53890;SDS011;41337;51.400;-2.342;2022-07-06T03:41:16;1.52;;;1.42;;
53890;SDS011;41337;51.400;-2.342;2022-07-06T03:46:17;3.00;;;1.70;;
53890;SDS011;41337;51.400;-2.342;2022-07-06T03:51:18;2.08;;;1.50;;
53890;SDS011;41337;51.400;-2.342;2022-07-06T03:56:19;2.40;;;1.95;;
53890;SDS011;41337;51.400;-2.342;2022-07-06T04:01:29;2.50;;;1.80;;
53890;SDS011;41337;51.400;-2.342;2022-07-06T04:06:30;2.33;;;1.90;;
53890;SDS011;41337;51.400;-2.342;2022-07-06T04:11:31;1.60;;;1.50;;
53890;SDS011;41337;51.400;-2.342;2022-07-06T04:16:32;1.70;;;1.60;;
53890;SDS011;41337;51.400;-2.342;2022-07-06T04:21:33;1.55;;;1.45;;
53890;SDS011;41337;51.400;-2.342;2022-07-06T04:26:34;1.50;;;1.40;;
53890;SDS011;41337;51.400;-2.342;2022-07-06T04:31:35;1.70;;;1.52;;
53890;SDS011;41337;51.400;-2.342;2022-07-06T04:36:35;2.10;;;1.63;;
53890;SDS011;41337;51.400;-2.342;2022-07-06T04:41:36;1.98;;;1.88;;
53890;SDS011;41337;51.400;-2.342;2022-07-06T04:46:37;1.60;;;1.50;;
53890;SDS011;41337;51.400;-2.342;2022-07-06T04:51:38;1.92;;;1.77;;
53890;SDS011;41337;51.400;-2.342;2022-07-06T04:56:39;1.95;;;1.77;;
53890;SDS011;41337;51.400;-2.342;2022-07-06T05:01:40;2.78;;;1.92;;
53890;SDS011;41337;51.400;-2.342;2022-07-06T05:06:47;1.95;;;1.65;;
53890;SDS011;41337;51.400;-2.342;2022-07-06T05:11:48;2.20;;;2.10;;
53890;SDS011;41337;51.400;-2.342;2022-07-06T05:16:48;1.92;;;1.33;;
53890;SDS011;41337;51.400;-2.342;2022-07-06T05:21:49;3.55;;;2.03;;
53890;SDS011;41337;51.400;-2.342;2022-07-06T05:26:50;2.38;;;1.80;;
53890;SDS011;41337;51.400;-2.342;2022-07-06T05:31:51;2.20;;;2.00;;
53890;SDS011;41337;51.400;-2.342;2022-07-06T05:36:52;2.20;;;1.92;;
53890;SDS011;41337;51.400;-2.342;2022-07-06T05:41:52;2.25;;;2.03;;
53890;SDS011;41337;51.400;-2.342;2022-07-06T05:46:53;2.55;;;1.73;;
53890;SDS011;41337;51.400;-2.342;2022-07-06T05:52:14;2.22;;;1.92;;
53890;SDS011;41337;51.400;-2.342;2022-07-06T05:57:15;2.08;;;1.98;;
53890;SDS011;41337;51.400;-2.342;2022-07-06T06:02:21;3.67;;;2.05;;
53890;SDS011;41337;51.400;-2.342;2022-07-06T06:07:21;2.25;;;2.08;;
53890;SDS011;41337;51.400;-2.342;2022-07-06T06:12:22;3.05;;;2.28;;
53890;SDS011;41337;51.400;-2.342;2022-07-06T06:17:23;2.30;;;2.10;;
53890;SDS011;41337;51.400;-2.342;2022-07-06T06:22:24;5.47;;;2.20;;
53890;SDS011;41337;51.400;-2.342;2022-07-06T06:27:25;3.28;;;2.30;;
53890;SDS011;41337;51.400;-2.342;2022-07-06T06:32:26;3.28;;;2.50;;
53890;SDS011;41337;51.400;-2.342;2022-07-06T06:37:26;3.35;;;3.00;;
53890;SDS011;41337;51.400;-2.342;2022-07-06T06:42:27;2.45;;;2.25;;
53890;SDS011;41337;51.400;-2.342;2022-07-06T06:47:28;2.35;;;2.15;;
53890;SDS011;41337;51.400;-2.342;2022-07-06T06:52:29;2.88;;;2.10;;
53890;SDS011;41337;51.400;-2.342;2022-07-06T06:57:30;2.67;;;2.47;;
53890;SDS011;41337;51.400;-2.342;2022-07-06T07:02:31;2.00;;;1.90;;
53890;SDS011;41337;51.400;-2.342;2022-07-06T07:07:32;1.80;;;1.70;;
53890;SDS011;41337;51.400;-2.342;2022-07-06T07:12:33;2.15;;;1.40;;
53890;SDS011;41337;51.400;-2.342;2022-07-06T07:17:34;2.20;;;1.60;;
53890;SDS011;41337;51.400;-2.342;2022-07-06T07:22:34;2.20;;;1.40;;
53890;SDS011;41337;51.400;-2.342;2022-07-06T07:27:35;1.88;;;1.50;;
53890;SDS011;41337;51.400;-2.342;2022-07-06T07:32:36;1.52;;;1.42;;
53890;SDS011;41337;51.400;-2.342;2022-07-06T07:37:37;2.13;;;0.90;;
53890;SDS011;41337;51.400;-2.342;2022-07-06T07:42:38;1.25;;;1.02;;
53890;SDS011;41337;51.400;-2.342;2022-07-06T07:47:41;1.10;;;0.70;;
53890;SDS011;41337;51.400;-2.342;2022-07-06T07:52:46;2.03;;;0.90;;
53890;SDS011;41337;51.400;-2.342;2022-07-06T07:57:47;1.08;;;0.80;;
53890;SDS011;41337;51.400;-2.342;2022-07-06T08:02:47;2.00;;;0.80;;
53890;SDS011;41337;51.400;-2.342;2022-07-06T08:07:48;2.40;;;0.82;;
53890;SDS011;41337;51.400;-2.342;2022-07-06T08:12:49;1.20;;;1.10;;
53890;SDS011;41337;51.400;-2.342;2022-07-06T08:17:50;1.73;;;1.27;;
53890;SDS011;41337;51.400;-2.342;2022-07-06T08:22:51;1.98;;;1.50;;
53890;SDS011;41337;51.400;-2.342;2022-07-06T08:27:52;1.50;;;1.25;;
53890;SDS011;41337;51.400;-2.342;2022-07-06T08:32:53;2.30;;;1.42;;
53890;SDS011;41337;51.400;-2.342;2022-07-06T08:37:54;4.43;;;1.20;;
53890;SDS011;41337;51.400;-2.342;2022-07-06T08:42:55;1.63;;;0.90;;
53890;SDS011;41337;51.400;-2.342;2022-07-06T08:47:57;1.05;;;0.60;;
53890;SDS011;41337;51.400;-2.342;2022-07-06T08:53:03;1.15;;;0.80;;
53890;SDS011;41337;51.400;-2.342;2022-07-06T08:58:04;2.22;;;0.98;;
53890;SDS011;41337;51.400;-2.342;2022-07-06T09:03:06;0.80;;;0.80;;
53890;SDS011;41337;51.400;-2.342;2022-07-06T09:08:13;0.80;;;0.80;;
53890;SDS011;41337;51.400;-2.342;2022-07-06T09:13:18;1.05;;;0.65;;
53890;SDS011;41337;51.400;-2.342;2022-07-06T09:18:20;1.38;;;0.60;;
53890;SDS011;41337;51.400;-2.342;2022-07-06T09:23:24;0.43;;;0.40;;
53890;SDS011;41337;51.400;-2.342;2022-07-06T09:28:39;0.77;;;0.60;;
53890;SDS011;41337;51.400;-2.342;2022-07-06T09:39:15;0.52;;;0.40;;
53890;SDS011;41337;51.400;-2.342;2022-07-06T09:44:22;0.55;;;0.40;;
53890;SDS011;41337;51.400;-2.342;2022-07-06T09:49:28;1.07;;;0.40;;
53890;SDS011;41337;51.400;-2.342;2022-07-06T09:54:33;1.40;;;0.45;;
53890;SDS011;41337;51.400;-2.342;2022-07-06T09:59:35;1.10;;;0.40;;
53890;SDS011;41337;51.400;-2.342;2022-07-06T10:04:36;1.30;;;0.47;;
53890;SDS011;41337;51.400;-2.342;2022-07-06T10:09:37;0.40;;;0.40;;
53890;SDS011;41337;51.400;-2.342;2022-07-06T10:14:38;0.40;;;0.40;;
53890;SDS011;41337;51.400;-2.342;2022-07-06T10:24:47;0.70;;;0.60;;
53890;SDS011;41337;51.400;-2.342;2022-07-06T10:29:49;2.50;;;0.75;;
53890;SDS011;41337;51.400;-2.342;2022-07-06T10:34:50;0.88;;;0.45;;
53890;SDS011;41337;51.400;-2.342;2022-07-06T10:39:51;0.57;;;0.50;;
53890;SDS011;41337;51.400;-2.342;2022-07-06T10:45:12;1.00;;;0.50;;
53890;SDS011;41337;51.400;-2.342;2022-07-06T10:50:31;0.50;;;0.47;;
53890;SDS011;41337;51.400;-2.342;2022-07-06T10:55:35;1.67;;;0.50;;
53890;SDS011;41337;51.400;-2.342;2022-07-06T11:00:50;2.20;;;0.70;;
53890;SDS011;41337;51.400;-2.342;2022-07-06T11:06:04;1.52;;;0.90;;
53890;SDS011;41337;51.400;-2.342;2022-07-06T11:11:11;2.85;;;1.10;;
53890;SDS011;41337;51.400;-2.342;2022-07-06T11:16:17;1.83;;;1.30;;
53890;SDS011;41337;51.400;-2.342;2022-07-06T11:21:36;2.00;;;0.85;;
53890;SDS011;41337;51.400;-2.342;2022-07-06T11:26:43;1.70;;;0.85;;
53890;SDS011;41337;51.400;-2.342;2022-07-06T11:31:47;0.90;;;0.60;;
53890;SDS011;41337;51.400;-2.342;2022-07-06T11:36:58;0.88;;;0.57;;
53890;SDS011;41337;51.400;-2.342;2022-07-06T11:42:04;1.05;;;0.70;;
53890;SDS011;41337;51.400;-2.342;2022-07-06T11:47:05;2.75;;;1.13;;
53890;SDS011;41337;51.400;-2.342;2022-07-06T11:52:11;1.35;;;1.02;;
53890;SDS011;41337;51.400;-2.342;2022-07-06T11:57:13;1.88;;;1.10;;
53890;SDS011;41337;51.400;-2.342;2022-07-06T12:02:14;2.78;;;1.17;;
53890;SDS011;41337;51.400;-2.342;2022-07-06T12:07:16;0.52;;;0.45;;
53890;SDS011;41337;51.400;-2.342;2022-07-06T12:12:23;0.55;;;0.50;;
53890;SDS011;41337;51.400;-2.342;2022-07-06T12:17:24;0.75;;;0.52;;
53890;SDS011;41337;51.400;-2.342;2022-07-06T12:22:26;1.35;;;0.70;;
53890;SDS011;41337;51.400;-2.342;2022-07-06T12:27:27;1.95;;;0.38;;
53890;SDS011;41337;51.400;-2.342;2022-07-06T12:32:27;1.17;;;0.65;;
53890;SDS011;41337;51.400;-2.342;2022-07-06T12:37:28;0.47;;;0.43;;
53890;SDS011;41337;51.400;-2.342;2022-07-06T12:42:29;1.95;;;0.60;;
53890;SDS011;41337;51.400;-2.342;2022-07-06T12:47:30;1.77;;;0.70;;
53890;SDS011;41337;51.400;-2.342;2022-07-06T12:52:31;1.27;;;0.52;;
53890;SDS011;41337;51.400;-2.342;2022-07-06T12:57:42;2.38;;;0.60;;
53890;SDS011;41337;51.400;-2.342;2022-07-06T13:02:49;1.25;;;0.60;;
53890;SDS011;41337;51.400;-2.342;2022-07-06T13:07:58;1.27;;;0.60;;
53890;SDS011;41337;51.400;-2.342;2022-07-06T13:13:07;3.13;;;0.70;;
53890;SDS011;41337;51.400;-2.342;2022-07-06T13:18:09;2.20;;;0.80;;
53890;SDS011;41337;51.400;-2.342;2022-07-06T13:23:10;3.33;;;1.02;;
53890;SDS011;41337;51.400;-2.342;2022-07-06T13:28:11;1.67;;;0.77;;
53890;SDS011;41337;51.400;-2.342;2022-07-06T13:33:16;1.83;;;0.60;;
53890;SDS011;41337;51.400;-2.342;2022-07-06T13:38:16;5.00;;;1.08;;
53890;SDS011;41337;51.400;-2.342;2022-07-06T13:43:18;1.55;;;0.60;;
53890;SDS011;41337;51.400;-2.342;2022-07-06T13:48:19;1.80;;;0.70;;
53890;SDS011;41337;51.400;-2.342;2022-07-06T13:53:20;0.95;;;0.70;;
53890;SDS011;41337;51.400;-2.342;2022-07-06T13:58:21;1.60;;;0.80;;
53890;SDS011;41337;51.400;-2.342;2022-07-06T14:03:22;2.17;;;0.60;;
53890;SDS011;41337;51.400;-2.342;2022-07-06T14:08:28;3.03;;;0.93;;
53890;SDS011;41337;51.400;-2.342;2022-07-06T14:13:30;3.67;;;1.00;;
53890;SDS011;41337;51.400;-2.342;2022-07-06T14:18:30;2.25;;;1.00;;
53890;SDS011;41337;51.400;-2.342;2022-07-06T14:23:32;2.33;;;0.85;;
53890;SDS011;41337;51.400;-2.342;2022-07-06T14:28:32;0.93;;;0.60;;
53890;SDS011;41337;51.400;-2.342;2022-07-06T14:33:33;3.05;;;0.73;;
53890;SDS011;41337;51.400;-2.342;2022-07-06T14:38:34;0.85;;;0.60;;
53890;SDS011;41337;51.400;-2.342;2022-07-06T14:43:35;1.63;;;0.55;;
53890;SDS011;41337;51.400;-2.342;2022-07-06T14:48:37;5.03;;;0.70;;
53890;SDS011;41337;51.400;-2.342;2022-07-06T14:53:38;2.58;;;0.80;;
53890;SDS011;41337;51.400;-2.342;2022-07-06T14:58:43;2.58;;;0.50;;
53890;SDS011;41337;51.400;-2.342;2022-07-06T15:03:43;3.35;;;0.65;;
53890;SDS011;41337;51.400;-2.342;2022-07-06T15:08:44;0.88;;;0.50;;
53890;SDS011;41337;51.400;-2.342;2022-07-06T15:13:47;1.75;;;0.50;;
53890;SDS011;41337;51.400;-2.342;2022-07-06T15:18:47;4.43;;;0.68;;
53890;SDS011;41337;51.400;-2.342;2022-07-06T15:23:48;4.07;;;0.98;;
53890;SDS011;41337;51.400;-2.342;2022-07-06T15:28:49;1.58;;;0.60;;
53890;SDS011;41337;51.400;-2.342;2022-07-06T15:33:50;4.32;;;0.98;;
53890;SDS011;41337;51.400;-2.342;2022-07-06T15:38:51;1.67;;;0.60;;
53890;SDS011;41337;51.400;-2.342;2022-07-06T15:43:51;3.90;;;0.55;;
53890;SDS011;41337;51.400;-2.342;2022-07-06T15:48:52;2.58;;;0.65;;
53890;SDS011;41337;51.400;-2.342;2022-07-06T15:53:53;1.98;;;0.70;;
53890;SDS011;41337;51.400;-2.342;2022-07-06T15:58:54;4.35;;;1.15;;
53890;SDS011;41337;51.400;-2.342;2022-07-06T16:03:55;1.67;;;0.68;;
53890;SDS011;41337;51.400;-2.342;2022-07-06T16:08:56;2.47;;;0.90;;
53890;SDS011;41337;51.400;-2.342;2022-07-06T16:13:57;2.17;;;0.50;;
53890;SDS011;41337;51.400;-2.342;2022-07-06T16:18:57;4.13;;;0.60;;
53890;SDS011;41337;51.400;-2.342;2022-07-06T16:24:04;6.03;;;1.00;;
53890;SDS011;41337;51.400;-2.342;2022-07-06T16:29:05;4.33;;;1.03;;
53890;SDS011;41337;51.400;-2.342;2022-07-06T16:34:06;6.22;;;1.02;;
53890;SDS011;41337;51.400;-2.342;2022-07-06T16:39:06;5.68;;;1.25;;
53890;SDS011;41337;51.400;-2.342;2022-07-06T16:44:08;2.40;;;0.75;;
53890;SDS011;41337;51.400;-2.342;2022-07-06T16:49:09;1.88;;;0.77;;
53890;SDS011;41337;51.400;-2.342;2022-07-06T16:54:10;4.15;;;1.00;;
53890;SDS011;41337;51.400;-2.342;2022-07-06T16:59:17;3.40;;;0.80;;
53890;SDS011;41337;51.400;-2.342;2022-07-06T17:04:18;4.32;;;0.77;;
53890;SDS011;41337;51.400;-2.342;2022-07-06T17:09:19;1.20;;;0.90;;
53890;SDS011;41337;51.400;-2.342;2022-07-06T17:14:20;1.70;;;0.93;;
53890;SDS011;41337;51.400;-2.342;2022-07-06T17:19:20;3.90;;;1.08;;
53890;SDS011;41337;51.400;-2.342;2022-07-06T17:24:23;3.17;;;1.00;;
53890;SDS011;41337;51.400;-2.342;2022-07-06T17:29:25;3.60;;;0.80;;
53890;SDS011;41337;51.400;-2.342;2022-07-06T17:34:32;4.95;;;1.20;;
53890;SDS011;41337;51.400;-2.342;2022-07-06T17:39:33;3.80;;;0.90;;
53890;SDS011;41337;51.400;-2.342;2022-07-06T17:44:33;4.07;;;0.60;;
53890;SDS011;41337;51.400;-2.342;2022-07-06T17:49:34;2.78;;;0.85;;
53890;SDS011;41337;51.400;-2.342;2022-07-06T17:54:35;3.53;;;0.93;;
53890;SDS011;41337;51.400;-2.342;2022-07-06T17:59:36;2.45;;;0.65;;
53890;SDS011;41337;51.400;-2.342;2022-07-06T18:04:41;2.58;;;0.88;;
53890;SDS011;41337;51.400;-2.342;2022-07-06T18:09:42;1.85;;;0.85;;
53890;SDS011;41337;51.400;-2.342;2022-07-06T18:14:43;1.35;;;0.70;;
53890;SDS011;41337;51.400;-2.342;2022-07-06T18:19:44;2.53;;;0.63;;
53890;SDS011;41337;51.400;-2.342;2022-07-06T18:24:45;2.95;;;1.05;;
53890;SDS011;41337;51.400;-2.342;2022-07-06T18:29:46;2.80;;;1.08;;
53890;SDS011;41337;51.400;-2.342;2022-07-06T18:34:47;5.20;;;0.82;;
53890;SDS011;41337;51.400;-2.342;2022-07-06T18:39:48;8.40;;;1.17;;
53890;SDS011;41337;51.400;-2.342;2022-07-06T18:44:49;3.10;;;1.33;;
53890;SDS011;41337;51.400;-2.342;2022-07-06T18:49:50;4.45;;;1.10;;
53890;SDS011;41337;51.400;-2.342;2022-07-06T18:54:53;4.10;;;1.50;;
53890;SDS011;41337;51.400;-2.342;2022-07-06T18:59:54;5.03;;;1.40;;
53890;SDS011;41337;51.400;-2.342;2022-07-06T19:04:58;3.05;;;1.30;;
53890;SDS011;41337;51.400;-2.342;2022-07-06T19:09:59;5.85;;;1.27;;
53890;SDS011;41337;51.400;-2.342;2022-07-06T19:15:00;9.85;;;1.38;;
53890;SDS011;41337;51.400;-2.342;2022-07-06T19:20:01;3.08;;;0.70;;
53890;SDS011;41337;51.400;-2.342;2022-07-06T19:25:02;0.20;;;0.10;;
53890;SDS011;41337;51.400;-2.342;2022-07-06T19:30:03;0.00;;;0.00;;
53890;SDS011;41337;51.400;-2.342;2022-07-06T19:35:05;0.17;;;0.10;;
53890;SDS011;41337;51.400;-2.342;2022-07-06T19:40:07;0.00;;;0.00;;
53890;SDS011;41337;51.400;-2.342;2022-07-06T19:45:11;0.43;;;0.10;;
53890;SDS011;41337;51.400;-2.342;2022-07-06T19:50:13;0.30;;;0.10;;
53890;SDS011;41337;51.400;-2.342;2022-07-06T19:55:14;0.10;;;0.10;;
53890;SDS011;41337;51.400;-2.342;2022-07-06T20:00:16;0.05;;;0.00;;
53890;SDS011;41337;51.400;-2.342;2022-07-06T20:05:17;0.10;;;0.10;;
53890;SDS011;41337;51.400;-2.342;2022-07-06T20:10:19;0.30;;;0.15;;
53890;SDS011;41337;51.400;-2.342;2022-07-06T20:15:26;0.45;;;0.17;;
53890;SDS011;41337;51.400;-2.342;2022-07-06T20:20:27;0.30;;;0.20;;
53890;SDS011;41337;51.400;-2.342;2022-07-06T20:25:28;1.88;;;0.68;;
53890;SDS011;41337;51.400;-2.342;2022-07-06T20:30:29;2.42;;;0.88;;
53890;SDS011;41337;51.400;-2.342;2022-07-06T20:35:30;4.35;;;1.20;;
53890;SDS011;41337;51.400;-2.342;2022-07-06T20:40:32;3.72;;;0.90;;
53890;SDS011;41337;51.400;-2.342;2022-07-06T20:45:32;4.55;;;1.50;;
53890;SDS011;41337;51.400;-2.342;2022-07-06T20:50:39;3.65;;;1.05;;
53890;SDS011;41337;51.400;-2.342;2022-07-06T20:55:40;4.03;;;1.35;;
53890;SDS011;41337;51.400;-2.342;2022-07-06T21:00:41;3.85;;;1.17;;
53890;SDS011;41337;51.400;-2.342;2022-07-06T21:05:42;3.50;;;0.90;;
53890;SDS011;41337;51.400;-2.342;2022-07-06T21:10:43;9.13;;;2.45;;
53890;SDS011;41337;51.400;-2.342;2022-07-06T21:15:44;4.53;;;1.70;;
53890;SDS011;41337;51.400;-2.342;2022-07-06T21:20:45;7.38;;;1.77;;
53890;SDS011;41337;51.400;-2.342;2022-07-06T21:25:46;4.65;;;1.70;;
53890;SDS011;41337;51.400;-2.342;2022-07-06T21:30:46;3.15;;;1.48;;
53890;SDS011;41337;51.400;-2.342;2022-07-06T21:35:47;3.25;;;1.17;;
53890;SDS011;41337;51.400;-2.342;2022-07-06T21:40:48;8.35;;;1.73;;
53890;SDS011;41337;51.400;-2.342;2022-07-06T21:45:55;5.47;;;1.90;;
53890;SDS011;41337;51.400;-2.342;2022-07-06T21:50:56;5.30;;;1.73;;
53890;SDS011;41337;51.400;-2.342;2022-07-06T21:55:58;6.45;;;1.92;;
53890;SDS011;41337;51.400;-2.342;2022-07-06T22:01:10;6.85;;;2.15;;
53890;SDS011;41337;51.400;-2.342;2022-07-06T22:06:14;6.10;;;2.00;;
53890;SDS011;41337;51.400;-2.342;2022-07-06T22:11:15;7.32;;;1.90;;
53890;SDS011;41337;51.400;-2.342;2022-07-06T22:16:16;5.40;;;2.08;;
53890;SDS011;41337;51.400;-2.342;2022-07-06T22:21:18;6.15;;;2.28;;
53890;SDS011;41337;51.400;-2.342;2022-07-06T22:26:19;6.60;;;2.40;;
53890;SDS011;41337;51.400;-2.342;2022-07-06T22:31:20;5.20;;;2.25;;
53890;SDS011;41337;51.400;-2.342;2022-07-06T22:36:21;6.70;;;2.75;;
53890;SDS011;41337;51.400;-2.342;2022-07-06T22:41:28;7.55;;;2.90;;
53890;SDS011;41337;51.400;-2.342;2022-07-06T22:46:31;5.85;;;2.72;;
53890;SDS011;41337;51.400;-2.342;2022-07-06T22:51:33;4.85;;;2.50;;
53890;SDS011;41337;51.400;-2.342;2022-07-06T22:56:38;4.88;;;2.50;;
53890;SDS011;41337;51.400;-2.342;2022-07-06T23:01:38;5.30;;;2.58;;
53890;SDS011;41337;51.400;-2.342;2022-07-06T23:06:39;8.50;;;2.47;;
53890;SDS011;41337;51.400;-2.342;2022-07-06T23:11:40;4.68;;;2.38;;
53890;SDS011;41337;51.400;-2.342;2022-07-06T23:16:41;7.53;;;3.10;;
53890;SDS011;41337;51.400;-2.342;2022-07-06T23:21:42;7.60;;;3.08;;
53890;SDS011;41337;51.400;-2.342;2022-07-06T23:26:43;12.35;;;3.08;;
53890;SDS011;41337;51.400;-2.342;2022-07-06T23:31:44;7.82;;;3.22;;
53890;SDS011;41337;51.400;-2.342;2022-07-06T23:36:48;5.65;;;3.28;;
53890;SDS011;41337;51.400;-2.342;2022-07-06T23:41:52;10.35;;;3.50;;
53890;SDS011;41337;51.400;-2.342;2022-07-06T23:46:54;8.07;;;2.92;;
53890;SDS011;41337;51.400;-2.342;2022-07-06T23:51:55;6.88;;;3.30;;
